sensor_id;sensor_type;location;lat;lon;timestamp;P1;durP1;ratioP1;P2;durP2;ratioP2
24585;SDS011;12743;52.262;6.172;2024-03-02T00:00:31;2.80;;;0.47;;
24585;SDS011;12743;52.262;6.172;2024-03-02T00:02:58;3.13;;;0.40;;
24585;SDS011;12743;52.262;6.172;2024-03-02T00:05:24;3.40;;;0.47;;
24585;SDS011;12743;52.262;6.172;2024-03-02T00:07:54;3.35;;;0.82;;
24585;SDS011;12743;52.262;6.172;2024-03-02T00:10:22;2.72;;;0.40;;
24585;SDS011;12743;52.262;6.172;2024-03-02T00:12:57;2.78;;;0.40;;
24585;SDS011;12743;52.262;6.172;2024-03-02T00:18:09;2.25;;;0.30;;
24585;SDS011;12743;52.262;6.172;2024-03-02T00:20:38;3.38;;;0.68;;
24585;SDS011;12743;52.262;6.172;2024-03-02T00:23:05;2.90;;;0.30;;
24585;SDS011;12743;52.262;6.172;2024-03-02T00:28:02;3.77;;;0.50;;
24585;SDS011;12743;52.262;6.172;2024-03-02T00:33:12;2.97;;;0.30;;
24585;SDS011;12743;52.262;6.172;2024-03-02T00:35:39;3.45;;;0.50;;
24585;SDS011;12743;52.262;6.172;2024-03-02T00:38:06;3.13;;;0.45;;
24585;SDS011;12743;52.262;6.172;2024-03-02T00:40:32;5.23;;;0.60;;
24585;SDS011;12743;52.262;6.172;2024-03-02T00:42:59;4.10;;;0.40;;
24585;SDS011;12743;52.262;6.172;2024-03-02T00:45:26;2.92;;;0.50;;
24585;SDS011;12743;52.262;6.172;2024-03-02T00:47:53;4.20;;;0.70;;
24585;SDS011;12743;52.262;6.172;2024-03-02T00:50:19;2.35;;;0.40;;
24585;SDS011;12743;52.262;6.172;2024-03-02T00:52:56;3.67;;;0.30;;
24585;SDS011;12743;52.262;6.172;2024-03-02T00:55:22;2.25;;;0.40;;
24585;SDS011;12743;52.262;6.172;2024-03-02T00:57:49;2.03;;;0.40;;
24585;SDS011;12743;52.262;6.172;2024-03-02T01:00:16;2.97;;;0.30;;
24585;SDS011;12743;52.262;6.172;2024-03-02T01:02:44;2.60;;;0.40;;
24585;SDS011;12743;52.262;6.172;2024-03-02T01:05:12;1.77;;;0.30;;
24585;SDS011;12743;52.262;6.172;2024-03-02T01:07:39;3.85;;;0.50;;
24585;SDS011;12743;52.262;6.172;2024-03-02T01:10:06;2.78;;;0.43;;
24585;SDS011;12743;52.262;6.172;2024-03-02T01:12:33;3.88;;;0.40;;
24585;SDS011;12743;52.262;6.172;2024-03-02T01:14:59;2.30;;;0.50;;
24585;SDS011;12743;52.262;6.172;2024-03-02T01:17:26;3.90;;;0.40;;
24585;SDS011;12743;52.262;6.172;2024-03-02T01:19:52;2.78;;;0.40;;
24585;SDS011;12743;52.262;6.172;2024-03-02T01:22:19;3.45;;;0.50;;
24585;SDS011;12743;52.262;6.172;2024-03-02T01:24:51;4.75;;;0.55;;
24585;SDS011;12743;52.262;6.172;2024-03-02T01:27:18;5.22;;;0.57;;
24585;SDS011;12743;52.262;6.172;2024-03-02T01:29:45;2.43;;;0.30;;
24585;SDS011;12743;52.262;6.172;2024-03-02T01:32:12;5.40;;;0.80;;
24585;SDS011;12743;52.262;6.172;2024-03-02T01:34:38;2.58;;;0.43;;
24585;SDS011;12743;52.262;6.172;2024-03-02T01:37:05;3.05;;;0.47;;
24585;SDS011;12743;52.262;6.172;2024-03-02T01:39:32;3.97;;;0.68;;
24585;SDS011;12743;52.262;6.172;2024-03-02T01:41:59;5.03;;;0.40;;
24585;SDS011;12743;52.262;6.172;2024-03-02T01:44:25;2.10;;;0.25;;
24585;SDS011;12743;52.262;6.172;2024-03-02T01:46:52;3.33;;;0.40;;
24585;SDS011;12743;52.262;6.172;2024-03-02T01:49:19;2.22;;;0.22;;
24585;SDS011;12743;52.262;6.172;2024-03-02T01:51:46;2.97;;;0.30;;
24585;SDS011;12743;52.262;6.172;2024-03-02T01:54:12;3.43;;;0.30;;
24585;SDS011;12743;52.262;6.172;2024-03-02T01:56:39;2.83;;;0.30;;
24585;SDS011;12743;52.262;6.172;2024-03-02T01:59:06;2.95;;;0.30;;
24585;SDS011;12743;52.262;6.172;2024-03-02T02:01:32;2.70;;;0.57;;
24585;SDS011;12743;52.262;6.172;2024-03-02T02:03:59;2.60;;;0.47;;
24585;SDS011;12743;52.262;6.172;2024-03-02T02:06:26;5.20;;;0.60;;
24585;SDS011;12743;52.262;6.172;2024-03-02T02:08:53;3.80;;;0.60;;
24585;SDS011;12743;52.262;6.172;2024-03-02T02:11:20;3.65;;;0.50;;
24585;SDS011;12743;52.262;6.172;2024-03-02T02:13:47;2.53;;;0.60;;
24585;SDS011;12743;52.262;6.172;2024-03-02T02:16:13;2.88;;;0.50;;
24585;SDS011;12743;52.262;6.172;2024-03-02T02:18:40;4.90;;;0.50;;
24585;SDS011;12743;52.262;6.172;2024-03-02T02:21:07;4.45;;;0.50;;
24585;SDS011;12743;52.262;6.172;2024-03-02T02:23:34;1.90;;;0.50;;
24585;SDS011;12743;52.262;6.172;2024-03-02T02:26:01;2.47;;;0.40;;
24585;SDS011;12743;52.262;6.172;2024-03-02T02:28:29;2.17;;;0.30;;
24585;SDS011;12743;52.262;6.172;2024-03-02T02:30:55;2.53;;;0.47;;
24585;SDS011;12743;52.262;6.172;2024-03-02T02:33:23;2.30;;;0.30;;
24585;SDS011;12743;52.262;6.172;2024-03-02T02:35:49;3.38;;;0.60;;
24585;SDS011;12743;52.262;6.172;2024-03-02T02:38:16;3.42;;;0.30;;
24585;SDS011;12743;52.262;6.172;2024-03-02T02:40:43;4.55;;;0.50;;
24585;SDS011;12743;52.262;6.172;2024-03-02T02:43:09;2.83;;;0.40;;
24585;SDS011;12743;52.262;6.172;2024-03-02T02:45:36;1.83;;;0.25;;
24585;SDS011;12743;52.262;6.172;2024-03-02T02:48:03;2.92;;;0.30;;
24585;SDS011;12743;52.262;6.172;2024-03-02T02:50:30;2.33;;;0.40;;
24585;SDS011;12743;52.262;6.172;2024-03-02T02:52:57;1.75;;;0.20;;
24585;SDS011;12743;52.262;6.172;2024-03-02T02:55:23;4.37;;;0.43;;
24585;SDS011;12743;52.262;6.172;2024-03-02T02:57:50;3.35;;;0.82;;
24585;SDS011;12743;52.262;6.172;2024-03-02T03:00:17;2.88;;;0.30;;
24585;SDS011;12743;52.262;6.172;2024-03-02T03:02:47;3.80;;;0.40;;
24585;SDS011;12743;52.262;6.172;2024-03-02T03:05:15;2.10;;;0.28;;
24585;SDS011;12743;52.262;6.172;2024-03-02T03:07:42;3.67;;;0.30;;
24585;SDS011;12743;52.262;6.172;2024-03-02T03:10:11;3.35;;;0.30;;
24585;SDS011;12743;52.262;6.172;2024-03-02T03:12:37;2.95;;;0.20;;
24585;SDS011;12743;52.262;6.172;2024-03-02T03:15:04;2.22;;;0.40;;
24585;SDS011;12743;52.262;6.172;2024-03-02T03:17:33;2.92;;;0.20;;
24585;SDS011;12743;52.262;6.172;2024-03-02T03:20:01;1.57;;;0.20;;
24585;SDS011;12743;52.262;6.172;2024-03-02T03:22:30;3.75;;;0.32;;
24585;SDS011;12743;52.262;6.172;2024-03-02T03:25:01;3.75;;;0.30;;
24585;SDS011;12743;52.262;6.172;2024-03-02T03:27:29;1.13;;;0.20;;
24585;SDS011;12743;52.262;6.172;2024-03-02T03:29:56;2.17;;;0.40;;
24585;SDS011;12743;52.262;6.172;2024-03-02T03:32:23;1.40;;;0.20;;
24585;SDS011;12743;52.262;6.172;2024-03-02T03:34:49;1.83;;;0.30;;
24585;SDS011;12743;52.262;6.172;2024-03-02T03:37:16;1.77;;;0.20;;
24585;SDS011;12743;52.262;6.172;2024-03-02T03:39:43;0.98;;;0.10;;
24585;SDS011;12743;52.262;6.172;2024-03-02T03:42:10;2.15;;;0.10;;
24585;SDS011;12743;52.262;6.172;2024-03-02T03:44:36;0.50;;;0.10;;
24585;SDS011;12743;52.262;6.172;2024-03-02T03:47:03;1.13;;;0.13;;
24585;SDS011;12743;52.262;6.172;2024-03-02T03:49:29;0.93;;;0.20;;
24585;SDS011;12743;52.262;6.172;2024-03-02T03:51:56;1.40;;;0.28;;
24585;SDS011;12743;52.262;6.172;2024-03-02T03:54:23;0.50;;;0.03;;
24585;SDS011;12743;52.262;6.172;2024-03-02T03:56:50;0.93;;;0.10;;
24585;SDS011;12743;52.262;6.172;2024-03-02T03:59:16;0.95;;;0.00;;
24585;SDS011;12743;52.262;6.172;2024-03-02T04:01:43;2.83;;;0.10;;
24585;SDS011;12743;52.262;6.172;2024-03-02T04:04:10;1.60;;;0.10;;
24585;SDS011;12743;52.262;6.172;2024-03-02T04:06:36;0.68;;;0.00;;
24585;SDS011;12743;52.262;6.172;2024-03-02T04:09:03;1.03;;;0.00;;
24585;SDS011;12743;52.262;6.172;2024-03-02T04:11:30;1.13;;;0.10;;
24585;SDS011;12743;52.262;6.172;2024-03-02T04:13:57;0.60;;;0.10;;
24585;SDS011;12743;52.262;6.172;2024-03-02T04:16:24;2.00;;;0.10;;
24585;SDS011;12743;52.262;6.172;2024-03-02T04:18:51;0.73;;;0.00;;
24585;SDS011;12743;52.262;6.172;2024-03-02T04:21:18;1.40;;;0.00;;
24585;SDS011;12743;52.262;6.172;2024-03-02T04:23:44;0.70;;;0.00;;
24585;SDS011;12743;52.262;6.172;2024-03-02T04:26:11;0.50;;;0.00;;
24585;SDS011;12743;52.262;6.172;2024-03-02T04:28:37;1.75;;;0.10;;
24585;SDS011;12743;52.262;6.172;2024-03-02T04:31:04;0.40;;;0.00;;
24585;SDS011;12743;52.262;6.172;2024-03-02T04:33:31;0.53;;;0.00;;
24585;SDS011;12743;52.262;6.172;2024-03-02T04:35:57;1.42;;;0.10;;
24585;SDS011;12743;52.262;6.172;2024-03-02T04:38:24;0.95;;;0.03;;
24585;SDS011;12743;52.262;6.172;2024-03-02T04:40:51;0.45;;;0.00;;
24585;SDS011;12743;52.262;6.172;2024-03-02T04:43:18;0.38;;;0.00;;
24585;SDS011;12743;52.262;6.172;2024-03-02T04:45:45;1.50;;;0.10;;
24585;SDS011;12743;52.262;6.172;2024-03-02T04:48:12;0.75;;;0.10;;
24585;SDS011;12743;52.262;6.172;2024-03-02T04:50:40;0.10;;;0.00;;
24585;SDS011;12743;52.262;6.172;2024-03-02T04:53:07;2.20;;;0.00;;
24585;SDS011;12743;52.262;6.172;2024-03-02T04:55:34;1.25;;;0.10;;
24585;SDS011;12743;52.262;6.172;2024-03-02T04:58:01;0.57;;;0.00;;
24585;SDS011;12743;52.262;6.172;2024-03-02T05:00:27;2.72;;;0.10;;
24585;SDS011;12743;52.262;6.172;2024-03-02T05:02:54;0.45;;;0.00;;
24585;SDS011;12743;52.262;6.172;2024-03-02T05:05:21;0.45;;;0.00;;
24585;SDS011;12743;52.262;6.172;2024-03-02T05:07:48;1.25;;;0.00;;
24585;SDS011;12743;52.262;6.172;2024-03-02T05:10:14;0.47;;;0.00;;
24585;SDS011;12743;52.262;6.172;2024-03-02T05:12:41;0.43;;;0.00;;
24585;SDS011;12743;52.262;6.172;2024-03-02T05:15:09;0.70;;;0.00;;
24585;SDS011;12743;52.262;6.172;2024-03-02T05:17:37;0.95;;;0.00;;
24585;SDS011;12743;52.262;6.172;2024-03-02T05:20:04;0.80;;;0.10;;
24585;SDS011;12743;52.262;6.172;2024-03-02T05:22:35;0.10;;;0.00;;
24585;SDS011;12743;52.262;6.172;2024-03-02T05:25:03;2.70;;;0.10;;
24585;SDS011;12743;52.262;6.172;2024-03-02T05:27:30;0.63;;;0.00;;
24585;SDS011;12743;52.262;6.172;2024-03-02T05:29:59;2.47;;;0.00;;
24585;SDS011;12743;52.262;6.172;2024-03-02T05:32:26;0.80;;;0.00;;
24585;SDS011;12743;52.262;6.172;2024-03-02T05:34:53;0.40;;;0.00;;
24585;SDS011;12743;52.262;6.172;2024-03-02T05:37:20;0.60;;;0.00;;
24585;SDS011;12743;52.262;6.172;2024-03-02T05:39:46;0.13;;;0.00;;
24585;SDS011;12743;52.262;6.172;2024-03-02T05:42:13;1.13;;;0.03;;
24585;SDS011;12743;52.262;6.172;2024-03-02T05:44:41;2.25;;;0.08;;
24585;SDS011;12743;52.262;6.172;2024-03-02T05:47:07;2.13;;;0.00;;
24585;SDS011;12743;52.262;6.172;2024-03-02T05:49:35;0.80;;;0.10;;
24585;SDS011;12743;52.262;6.172;2024-03-02T05:52:02;0.95;;;0.10;;
24585;SDS011;12743;52.262;6.172;2024-03-02T05:54:29;1.58;;;0.05;;
24585;SDS011;12743;52.262;6.172;2024-03-02T05:56:56;0.40;;;0.00;;
24585;SDS011;12743;52.262;6.172;2024-03-02T05:59:23;1.33;;;0.10;;
24585;SDS011;12743;52.262;6.172;2024-03-02T06:01:49;1.38;;;0.05;;
24585;SDS011;12743;52.262;6.172;2024-03-02T06:04:19;1.60;;;0.10;;
24585;SDS011;12743;52.262;6.172;2024-03-02T06:06:45;0.65;;;0.00;;
24585;SDS011;12743;52.262;6.172;2024-03-02T06:09:12;1.10;;;0.17;;
24585;SDS011;12743;52.262;6.172;2024-03-02T06:11:40;1.17;;;0.20;;
24585;SDS011;12743;52.262;6.172;2024-03-02T06:14:08;3.45;;;0.30;;
24585;SDS011;12743;52.262;6.172;2024-03-02T06:16:35;1.00;;;0.00;;
24585;SDS011;12743;52.262;6.172;2024-03-02T06:19:01;1.27;;;0.03;;
24585;SDS011;12743;52.262;6.172;2024-03-02T06:21:28;0.75;;;0.20;;
24585;SDS011;12743;52.262;6.172;2024-03-02T06:23:55;0.97;;;0.10;;
24585;SDS011;12743;52.262;6.172;2024-03-02T06:26:23;3.50;;;0.00;;
24585;SDS011;12743;52.262;6.172;2024-03-02T06:28:51;1.85;;;0.10;;
24585;SDS011;12743;52.262;6.172;2024-03-02T06:31:18;1.42;;;0.10;;
24585;SDS011;12743;52.262;6.172;2024-03-02T06:33:45;2.53;;;0.17;;
24585;SDS011;12743;52.262;6.172;2024-03-02T06:36:12;0.97;;;0.03;;
24585;SDS011;12743;52.262;6.172;2024-03-02T06:38:39;1.75;;;0.10;;
24585;SDS011;12743;52.262;6.172;2024-03-02T06:41:09;1.75;;;0.00;;
24585;SDS011;12743;52.262;6.172;2024-03-02T06:43:35;0.95;;;0.05;;
24585;SDS011;12743;52.262;6.172;2024-03-02T06:46:02;0.65;;;0.10;;
24585;SDS011;12743;52.262;6.172;2024-03-02T06:48:29;1.17;;;0.10;;
24585;SDS011;12743;52.262;6.172;2024-03-02T06:50:56;1.10;;;0.10;;
24585;SDS011;12743;52.262;6.172;2024-03-02T06:53:24;1.27;;;0.10;;
24585;SDS011;12743;52.262;6.172;2024-03-02T06:55:51;1.38;;;0.10;;
24585;SDS011;12743;52.262;6.172;2024-03-02T06:58:18;1.00;;;0.10;;
24585;SDS011;12743;52.262;6.172;2024-03-02T07:00:45;1.53;;;0.20;;
24585;SDS011;12743;52.262;6.172;2024-03-02T07:03:11;1.42;;;0.00;;
24585;SDS011;12743;52.262;6.172;2024-03-02T07:05:39;1.52;;;0.20;;
24585;SDS011;12743;52.262;6.172;2024-03-02T07:08:06;0.80;;;0.20;;
24585;SDS011;12743;52.262;6.172;2024-03-02T07:10:33;0.77;;;0.10;;
24585;SDS011;12743;52.262;6.172;2024-03-02T07:12:59;1.13;;;0.20;;
24585;SDS011;12743;52.262;6.172;2024-03-02T07:15:26;2.38;;;0.10;;
24585;SDS011;12743;52.262;6.172;2024-03-02T07:17:53;1.50;;;0.40;;
24585;SDS011;12743;52.262;6.172;2024-03-02T07:20:20;0.95;;;0.10;;
24585;SDS011;12743;52.262;6.172;2024-03-02T07:22:47;2.45;;;0.10;;
24585;SDS011;12743;52.262;6.172;2024-03-02T07:25:13;2.07;;;0.10;;
24585;SDS011;12743;52.262;6.172;2024-03-02T07:27:43;0.60;;;0.10;;
24585;SDS011;12743;52.262;6.172;2024-03-02T07:30:13;1.20;;;0.30;;
24585;SDS011;12743;52.262;6.172;2024-03-02T07:32:40;0.85;;;0.10;;
24585;SDS011;12743;52.262;6.172;2024-03-02T07:35:08;2.75;;;0.10;;
24585;SDS011;12743;52.262;6.172;2024-03-02T07:37:35;3.07;;;0.20;;
24585;SDS011;12743;52.262;6.172;2024-03-02T07:40:02;2.10;;;0.30;;
24585;SDS011;12743;52.262;6.172;2024-03-02T07:42:29;2.85;;;0.10;;
24585;SDS011;12743;52.262;6.172;2024-03-02T07:44:56;4.32;;;0.10;;
24585;SDS011;12743;52.262;6.172;2024-03-02T07:47:23;2.25;;;0.20;;
24585;SDS011;12743;52.262;6.172;2024-03-02T07:49:49;1.30;;;0.10;;
24585;SDS011;12743;52.262;6.172;2024-03-02T07:52:16;1.55;;;0.10;;
24585;SDS011;12743;52.262;6.172;2024-03-02T07:54:43;1.17;;;0.10;;
24585;SDS011;12743;52.262;6.172;2024-03-02T07:57:10;2.67;;;0.20;;
24585;SDS011;12743;52.262;6.172;2024-03-02T07:59:37;1.23;;;0.30;;
24585;SDS011;12743;52.262;6.172;2024-03-02T08:02:03;0.90;;;0.10;;
24585;SDS011;12743;52.262;6.172;2024-03-02T08:04:30;2.10;;;0.13;;
24585;SDS011;12743;52.262;6.172;2024-03-02T08:06:57;2.65;;;0.30;;
24585;SDS011;12743;52.262;6.172;2024-03-02T08:09:25;1.27;;;0.13;;
24585;SDS011;12743;52.262;6.172;2024-03-02T08:11:52;4.18;;;0.25;;
24585;SDS011;12743;52.262;6.172;2024-03-02T08:14:18;2.87;;;0.20;;
24585;SDS011;12743;52.262;6.172;2024-03-02T08:16:45;2.47;;;0.20;;
24585;SDS011;12743;52.262;6.172;2024-03-02T08:19:12;2.13;;;0.10;;
24585;SDS011;12743;52.262;6.172;2024-03-02T08:21:39;1.48;;;0.10;;
24585;SDS011;12743;52.262;6.172;2024-03-02T08:24:06;2.03;;;0.10;;
24585;SDS011;12743;52.262;6.172;2024-03-02T08:26:33;3.30;;;0.27;;
24585;SDS011;12743;52.262;6.172;2024-03-02T08:29:00;0.80;;;0.10;;
24585;SDS011;12743;52.262;6.172;2024-03-02T08:31:28;1.52;;;0.20;;
24585;SDS011;12743;52.262;6.172;2024-03-02T08:33:54;2.28;;;0.20;;
24585;SDS011;12743;52.262;6.172;2024-03-02T08:36:23;3.05;;;0.20;;
24585;SDS011;12743;52.262;6.172;2024-03-02T08:38:50;3.30;;;0.33;;
24585;SDS011;12743;52.262;6.172;2024-03-02T08:41:16;2.90;;;0.20;;
24585;SDS011;12743;52.262;6.172;2024-03-02T08:43:43;2.30;;;0.30;;
24585;SDS011;12743;52.262;6.172;2024-03-02T08:46:10;2.97;;;0.20;;
24585;SDS011;12743;52.262;6.172;2024-03-02T08:48:37;3.78;;;0.20;;
24585;SDS011;12743;52.262;6.172;2024-03-02T08:51:04;2.60;;;0.20;;
24585;SDS011;12743;52.262;6.172;2024-03-02T08:53:34;2.67;;;0.10;;
24585;SDS011;12743;52.262;6.172;2024-03-02T08:56:00;3.53;;;0.20;;
24585;SDS011;12743;52.262;6.172;2024-03-02T08:58:28;1.90;;;0.15;;
24585;SDS011;12743;52.262;6.172;2024-03-02T09:00:55;3.20;;;0.55;;
24585;SDS011;12743;52.262;6.172;2024-03-02T09:03:22;2.43;;;0.20;;
24585;SDS011;12743;52.262;6.172;2024-03-02T09:05:49;4.57;;;0.30;;
24585;SDS011;12743;52.262;6.172;2024-03-02T09:08:15;2.85;;;0.43;;
24585;SDS011;12743;52.262;6.172;2024-03-02T09:10:42;4.95;;;0.25;;
24585;SDS011;12743;52.262;6.172;2024-03-02T09:13:10;3.28;;;0.17;;
24585;SDS011;12743;52.262;6.172;2024-03-02T09:15:36;2.53;;;0.10;;
24585;SDS011;12743;52.262;6.172;2024-03-02T09:18:06;4.45;;;0.17;;
24585;SDS011;12743;52.262;6.172;2024-03-02T09:20:33;2.85;;;0.20;;
24585;SDS011;12743;52.262;6.172;2024-03-02T09:23:00;4.45;;;0.30;;
24585;SDS011;12743;52.262;6.172;2024-03-02T09:25:26;2.53;;;0.10;;
24585;SDS011;12743;52.262;6.172;2024-03-02T09:27:53;3.17;;;0.40;;
24585;SDS011;12743;52.262;6.172;2024-03-02T09:30:20;3.80;;;0.10;;
24585;SDS011;12743;52.262;6.172;2024-03-02T09:32:46;3.45;;;0.38;;
24585;SDS011;12743;52.262;6.172;2024-03-02T09:35:16;3.88;;;0.20;;
24585;SDS011;12743;52.262;6.172;2024-03-02T09:37:42;1.55;;;0.20;;
24585;SDS011;12743;52.262;6.172;2024-03-02T09:40:09;4.17;;;0.10;;
24585;SDS011;12743;52.262;6.172;2024-03-02T09:42:37;1.83;;;0.10;;
24585;SDS011;12743;52.262;6.172;2024-03-02T09:45:04;4.60;;;0.20;;
24585;SDS011;12743;52.262;6.172;2024-03-02T09:47:31;3.13;;;0.10;;
24585;SDS011;12743;52.262;6.172;2024-03-02T09:49:58;1.42;;;0.10;;
24585;SDS011;12743;52.262;6.172;2024-03-02T09:52:25;1.87;;;0.10;;
24585;SDS011;12743;52.262;6.172;2024-03-02T09:54:52;2.55;;;0.10;;
24585;SDS011;12743;52.262;6.172;2024-03-02T09:57:19;2.88;;;0.20;;
24585;SDS011;12743;52.262;6.172;2024-03-02T09:59:46;4.72;;;0.20;;
24585;SDS011;12743;52.262;6.172;2024-03-02T10:02:12;0.95;;;0.10;;
24585;SDS011;12743;52.262;6.172;2024-03-02T10:04:39;2.57;;;0.20;;
24585;SDS011;12743;52.262;6.172;2024-03-02T10:07:09;4.15;;;0.20;;
24585;SDS011;12743;52.262;6.172;2024-03-02T10:09:37;3.50;;;0.20;;
24585;SDS011;12743;52.262;6.172;2024-03-02T10:12:04;3.15;;;0.20;;
24585;SDS011;12743;52.262;6.172;2024-03-02T10:14:32;2.28;;;0.20;;
24585;SDS011;12743;52.262;6.172;2024-03-02T10:17:02;2.63;;;0.10;;
24585;SDS011;12743;52.262;6.172;2024-03-02T10:19:39;5.35;;;0.20;;
24585;SDS011;12743;52.262;6.172;2024-03-02T10:22:09;4.82;;;0.20;;
24585;SDS011;12743;52.262;6.172;2024-03-02T10:24:40;4.47;;;0.20;;
24585;SDS011;12743;52.262;6.172;2024-03-02T10:29:56;5.17;;;0.30;;
24585;SDS011;12743;52.262;6.172;2024-03-02T10:32:22;3.63;;;0.10;;
24585;SDS011;12743;52.262;6.172;2024-03-02T10:34:49;2.40;;;0.20;;
24585;SDS011;12743;52.262;6.172;2024-03-02T10:37:16;2.15;;;0.20;;
24585;SDS011;12743;52.262;6.172;2024-03-02T10:39:46;5.40;;;0.20;;
24585;SDS011;12743;52.262;6.172;2024-03-02T10:42:14;0.83;;;0.00;;
24585;SDS011;12743;52.262;6.172;2024-03-02T10:44:41;3.30;;;0.10;;
24585;SDS011;12743;52.262;6.172;2024-03-02T10:47:07;3.65;;;0.40;;
24585;SDS011;12743;52.262;6.172;2024-03-02T10:49:35;1.10;;;0.10;;
24585;SDS011;12743;52.262;6.172;2024-03-02T10:52:03;3.00;;;0.17;;
24585;SDS011;12743;52.262;6.172;2024-03-02T10:54:30;4.10;;;0.30;;
24585;SDS011;12743;52.262;6.172;2024-03-02T10:57:03;0.90;;;0.10;;
24585;SDS011;12743;52.262;6.172;2024-03-02T10:59:35;4.32;;;0.20;;
24585;SDS011;12743;52.262;6.172;2024-03-02T11:02:03;3.22;;;0.20;;
24585;SDS011;12743;52.262;6.172;2024-03-02T11:04:32;2.08;;;0.20;;
24585;SDS011;12743;52.262;6.172;2024-03-02T11:07:00;2.83;;;0.20;;
24585;SDS011;12743;52.262;6.172;2024-03-02T11:09:29;4.40;;;0.20;;
24585;SDS011;12743;52.262;6.172;2024-03-02T11:14:30;2.67;;;0.20;;
24585;SDS011;12743;52.262;6.172;2024-03-02T11:17:01;1.80;;;0.10;;
24585;SDS011;12743;52.262;6.172;2024-03-02T11:19:29;2.70;;;0.30;;
24585;SDS011;12743;52.262;6.172;2024-03-02T11:21:57;3.58;;;0.20;;
24585;SDS011;12743;52.262;6.172;2024-03-02T11:26:51;2.83;;;0.10;;
24585;SDS011;12743;52.262;6.172;2024-03-02T11:32:04;1.30;;;0.10;;
24585;SDS011;12743;52.262;6.172;2024-03-02T11:34:32;1.67;;;0.20;;
24585;SDS011;12743;52.262;6.172;2024-03-02T11:37:03;2.85;;;0.20;;
24585;SDS011;12743;52.262;6.172;2024-03-02T11:39:30;2.72;;;0.20;;
24585;SDS011;12743;52.262;6.172;2024-03-02T11:41:57;3.00;;;0.17;;
24585;SDS011;12743;52.262;6.172;2024-03-02T11:44:26;1.93;;;0.20;;
24585;SDS011;12743;52.262;6.172;2024-03-02T11:47:00;2.65;;;0.20;;
24585;SDS011;12743;52.262;6.172;2024-03-02T11:52:09;2.85;;;0.10;;
24585;SDS011;12743;52.262;6.172;2024-03-02T11:54:38;2.25;;;0.10;;
24585;SDS011;12743;52.262;6.172;2024-03-02T11:57:06;2.83;;;0.20;;
24585;SDS011;12743;52.262;6.172;2024-03-02T11:59:33;2.78;;;0.20;;
24585;SDS011;12743;52.262;6.172;2024-03-02T12:02:00;3.03;;;0.32;;
24585;SDS011;12743;52.262;6.172;2024-03-02T12:04:27;3.15;;;0.20;;
24585;SDS011;12743;52.262;6.172;2024-03-02T12:06:56;2.67;;;0.30;;
24585;SDS011;12743;52.262;6.172;2024-03-02T12:09:27;4.03;;;0.10;;
24585;SDS011;12743;52.262;6.172;2024-03-02T12:12:28;3.63;;;0.22;;
24585;SDS011;12743;52.262;6.172;2024-03-02T12:14:52;1.50;;;0.20;;
24585;SDS011;12743;52.262;6.172;2024-03-02T12:17:22;2.13;;;0.20;;
24585;SDS011;12743;52.262;6.172;2024-03-02T12:19:48;2.13;;;0.20;;
24585;SDS011;12743;52.262;6.172;2024-03-02T12:22:15;2.13;;;0.20;;
24585;SDS011;12743;52.262;6.172;2024-03-02T12:24:43;2.58;;;0.13;;
24585;SDS011;12743;52.262;6.172;2024-03-02T12:27:12;4.97;;;0.20;;
24585;SDS011;12743;52.262;6.172;2024-03-02T12:29:39;2.63;;;0.20;;
24585;SDS011;12743;52.262;6.172;2024-03-02T12:32:06;4.07;;;0.20;;
24585;SDS011;12743;52.262;6.172;2024-03-02T12:34:33;2.80;;;0.17;;
24585;SDS011;12743;52.262;6.172;2024-03-02T12:37:00;3.47;;;0.52;;
24585;SDS011;12743;52.262;6.172;2024-03-02T12:39:26;2.40;;;0.30;;
24585;SDS011;12743;52.262;6.172;2024-03-02T12:41:53;2.00;;;0.50;;
24585;SDS011;12743;52.262;6.172;2024-03-02T12:44:21;2.38;;;0.20;;
24585;SDS011;12743;52.262;6.172;2024-03-02T12:46:48;2.40;;;0.17;;
24585;SDS011;12743;52.262;6.172;2024-03-02T12:49:15;0.65;;;0.15;;
24585;SDS011;12743;52.262;6.172;2024-03-02T12:51:47;2.60;;;0.30;;
24585;SDS011;12743;52.262;6.172;2024-03-02T12:54:18;2.08;;;0.20;;
24585;SDS011;12743;52.262;6.172;2024-03-02T12:56:45;6.13;;;0.52;;
24585;SDS011;12743;52.262;6.172;2024-03-02T12:59:18;2.83;;;0.80;;
24585;SDS011;12743;52.262;6.172;2024-03-02T13:01:51;2.83;;;0.40;;
24585;SDS011;12743;52.262;6.172;2024-03-02T13:04:21;1.75;;;0.30;;
24585;SDS011;12743;52.262;6.172;2024-03-02T13:06:49;3.90;;;0.20;;
24585;SDS011;12743;52.262;6.172;2024-03-02T13:09:17;1.98;;;0.50;;
24585;SDS011;12743;52.262;6.172;2024-03-02T13:11:44;2.30;;;0.23;;
24585;SDS011;12743;52.262;6.172;2024-03-02T13:14:11;2.42;;;0.30;;
24585;SDS011;12743;52.262;6.172;2024-03-02T13:16:38;4.32;;;0.30;;
24585;SDS011;12743;52.262;6.172;2024-03-02T13:19:13;1.08;;;0.30;;
24585;SDS011;12743;52.262;6.172;2024-03-02T13:21:40;2.15;;;0.50;;
24585;SDS011;12743;52.262;6.172;2024-03-02T13:24:07;2.87;;;0.50;;
24585;SDS011;12743;52.262;6.172;2024-03-02T13:26:34;2.15;;;0.40;;
24585;SDS011;12743;52.262;6.172;2024-03-02T13:29:01;3.25;;;0.45;;
24585;SDS011;12743;52.262;6.172;2024-03-02T13:31:28;3.03;;;0.43;;
24585;SDS011;12743;52.262;6.172;2024-03-02T13:33:54;3.92;;;0.30;;
24585;SDS011;12743;52.262;6.172;2024-03-02T13:36:21;2.80;;;0.40;;
24585;SDS011;12743;52.262;6.172;2024-03-02T13:38:48;1.25;;;0.22;;
24585;SDS011;12743;52.262;6.172;2024-03-02T13:41:14;2.85;;;0.40;;
24585;SDS011;12743;52.262;6.172;2024-03-02T13:43:41;2.25;;;0.30;;
24585;SDS011;12743;52.262;6.172;2024-03-02T13:46:08;3.75;;;0.30;;
24585;SDS011;12743;52.262;6.172;2024-03-02T13:48:36;2.67;;;0.40;;
24585;SDS011;12743;52.262;6.172;2024-03-02T13:51:03;1.95;;;0.30;;
24585;SDS011;12743;52.262;6.172;2024-03-02T13:53:30;2.65;;;0.28;;
24585;SDS011;12743;52.262;6.172;2024-03-02T13:55:58;3.10;;;0.30;;
24585;SDS011;12743;52.262;6.172;2024-03-02T13:58:25;4.75;;;0.60;;
24585;SDS011;12743;52.262;6.172;2024-03-02T14:00:53;2.37;;;0.40;;
24585;SDS011;12743;52.262;6.172;2024-03-02T14:03:20;1.75;;;0.10;;
24585;SDS011;12743;52.262;6.172;2024-03-02T14:05:49;3.05;;;0.22;;
24585;SDS011;12743;52.262;6.172;2024-03-02T14:08:17;4.10;;;0.40;;
24585;SDS011;12743;52.262;6.172;2024-03-02T14:10:44;3.92;;;0.40;;
24585;SDS011;12743;52.262;6.172;2024-03-02T14:13:10;1.73;;;0.20;;
24585;SDS011;12743;52.262;6.172;2024-03-02T14:15:37;2.75;;;0.30;;
24585;SDS011;12743;52.262;6.172;2024-03-02T14:18:07;3.72;;;0.30;;
24585;SDS011;12743;52.262;6.172;2024-03-02T14:20:37;4.43;;;0.40;;
24585;SDS011;12743;52.262;6.172;2024-03-02T14:23:04;3.47;;;0.40;;
24585;SDS011;12743;52.262;6.172;2024-03-02T14:25:30;7.10;;;0.40;;
24585;SDS011;12743;52.262;6.172;2024-03-02T14:27:59;2.53;;;0.40;;
24585;SDS011;12743;52.262;6.172;2024-03-02T14:30:46;4.75;;;1.10;;
24585;SDS011;12743;52.262;6.172;2024-03-02T14:33:13;6.93;;;0.70;;
24585;SDS011;12743;52.262;6.172;2024-03-02T14:35:40;4.40;;;0.80;;
24585;SDS011;12743;52.262;6.172;2024-03-02T14:38:06;4.90;;;0.93;;
24585;SDS011;12743;52.262;6.172;2024-03-02T14:40:33;5.25;;;1.33;;
24585;SDS011;12743;52.262;6.172;2024-03-02T14:43:00;3.47;;;0.52;;
24585;SDS011;12743;52.262;6.172;2024-03-02T14:45:27;3.47;;;0.40;;
24585;SDS011;12743;52.262;6.172;2024-03-02T14:47:53;2.53;;;0.68;;
24585;SDS011;12743;52.262;6.172;2024-03-02T14:50:20;3.00;;;0.80;;
24585;SDS011;12743;52.262;6.172;2024-03-02T14:52:47;5.68;;;1.05;;
24585;SDS011;12743;52.262;6.172;2024-03-02T14:55:13;5.65;;;0.85;;
24585;SDS011;12743;52.262;6.172;2024-03-02T14:57:40;2.72;;;0.70;;
24585;SDS011;12743;52.262;6.172;2024-03-02T15:00:07;4.10;;;1.13;;
24585;SDS011;12743;52.262;6.172;2024-03-02T15:02:34;3.47;;;0.80;;
24585;SDS011;12743;52.262;6.172;2024-03-02T15:05:01;2.35;;;1.00;;
24585;SDS011;12743;52.262;6.172;2024-03-02T15:07:28;5.68;;;1.23;;
24585;SDS011;12743;52.262;6.172;2024-03-02T15:09:54;2.72;;;0.70;;